createdAt,value
2023-05-20T00:00:53.097Z,57266.89
2023-05-20T00:03:23.653Z,57227.70
2023-05-20T00:05:55.648Z,57254.18
2023-05-20T00:08:26.148Z,57238.29
2023-05-20T00:10:56.625Z,57256.30
2023-05-20T00:13:27.106Z,57236.18
2023-05-20T00:15:57.617Z,57243.59
2023-05-20T00:18:28.015Z,57253.12
2023-05-20T00:20:59.755Z,57224.53
2023-05-20T00:23:30.139Z,57224.53
2023-05-20T00:26:04.918Z,57229.82
2023-05-20T00:28:35.303Z,57219.23
2023-05-20T00:31:07.682Z,57209.70
2023-05-20T00:33:38.057Z,57209.70
2023-05-20T00:36:08.522Z,57205.46
2023-05-20T00:38:40.411Z,57205.46
2023-05-20T00:41:10.739Z,57217.11
2023-05-20T00:43:42.848Z,57202.29
2023-05-20T00:46:14.102Z,57204.41
2023-05-20T00:48:45.329Z,57240.41
2023-05-20T00:51:15.728Z,57240.41
2023-05-20T00:53:46.459Z,57215.00
2023-05-20T00:56:18.140Z,57253.12
2023-05-20T00:58:49.707Z,57200.17
2023-05-20T01:01:20.077Z,57221.35
2023-05-20T01:03:52.169Z,57215.00
2023-05-20T01:06:23.191Z,57233.00
2023-05-20T01:08:53.744Z,57225.59
2023-05-20T01:11:37.135Z,57219.23
2023-05-20T01:14:10.665Z,57225.59
2023-05-20T01:16:43.044Z,57206.52
2023-05-20T01:19:16.359Z,57241.47
2023-05-20T01:21:47.882Z,57211.82
2023-05-20T01:24:18.117Z,57230.88
2023-05-20T01:26:48.686Z,57216.05
2023-05-20T01:29:19.179Z,57218.17
2023-05-20T01:31:55.306Z,57199.11
2023-05-20T01:34:26.316Z,57212.87
2023-05-20T01:37:17.575Z,57206.52
2023-05-20T01:39:50.560Z,57221.35
2023-05-20T01:42:26.950Z,57192.75
2023-05-20T01:44:57.364Z,57231.94
2023-05-20T01:47:30.259Z,57205.46
2023-05-20T01:50:00.662Z,57202.29
2023-05-20T01:52:31.410Z,57202.29
2023-05-20T01:55:02.225Z,57230.88
2023-05-20T01:57:43.699Z,57223.46
2023-05-20T02:00:17.010Z,57221.35
2023-05-20T02:02:48.555Z,57219.23
2023-05-20T02:05:19.096Z,57219.23
2023-05-20T02:07:49.378Z,57213.94
2023-05-20T02:10:19.801Z,57213.94
2023-05-20T02:12:50.114Z,57211.82
2023-05-20T02:15:22.040Z,57215.00
2023-05-20T02:17:52.473Z,57199.11
2023-05-20T02:20:22.746Z,57226.64
2023-05-20T02:22:53.286Z,57218.17
2023-05-20T02:25:23.678Z,57205.46
2023-05-20T02:27:54.785Z,57213.94
2023-05-20T02:30:25.215Z,57231.94
2023-05-20T02:32:58.180Z,57208.64
2023-05-20T02:35:36.062Z,57223.46
2023-05-20T02:38:17.063Z,57249.95
2023-05-20T02:40:47.614Z,57195.93
2023-05-20T02:43:18.116Z,57195.93
2023-05-20T02:45:48.818Z,57218.17
2023-05-20T02:48:19.161Z,57220.29
2023-05-20T02:50:49.510Z,57207.58
2023-05-20T02:53:20.135Z,57200.17
2023-05-20T02:55:50.712Z,57242.53
2023-05-20T02:58:21.268Z,57242.53
2023-05-20T03:00:51.691Z,57215.00
2023-05-20T03:03:22.145Z,57218.17
2023-05-20T03:05:52.440Z,57209.70
2023-05-20T03:08:23.571Z,57219.23
2023-05-20T03:10:53.896Z,57227.70
2023-05-20T03:13:24.616Z,57227.70
2023-05-20T03:15:55.156Z,57252.06
2023-05-20T03:18:30.384Z,57209.70
2023-05-20T03:21:01.185Z,57222.41
2023-05-20T03:23:32.287Z,57224.53
2023-05-20T03:26:02.794Z,57215.00
2023-05-20T03:28:33.218Z,57215.00
2023-05-20T03:31:03.835Z,57269.00
2023-05-20T03:33:37.239Z,57251.00
2023-05-20T03:36:07.985Z,57251.00
2023-05-20T03:38:39.144Z,57227.70
2023-05-20T03:41:09.623Z,57227.70
2023-05-20T03:43:40.083Z,57252.06
2023-05-20T03:46:10.616Z,57225.59
2023-05-20T03:48:41.152Z,57223.46
2023-05-20T03:51:11.564Z,57223.46
2023-05-20T03:53:44.782Z,57249.95
2023-05-20T03:56:15.135Z,57249.95
2023-05-20T03:58:45.598Z,57213.94
2023-05-20T04:01:16.128Z,57242.53
2023-05-20T04:03:46.553Z,57234.06
2023-05-20T04:06:19.508Z,57256.30
2023-05-20T04:08:54.048Z,57259.47
2023-05-20T04:11:25.060Z,57254.18
2023-05-20T04:13:55.627Z,57205.46
2023-05-20T04:16:27.887Z,57256.30
2023-05-20T04:19:01.026Z,57249.95
2023-05-20T04:21:32.277Z,57249.95
2023-05-20T04:24:02.668Z,57259.47
2023-05-20T04:26:33.371Z,57271.13
2023-05-20T04:29:10.320Z,57271.13
2023-05-20T04:31:49.300Z,57265.83
2023-05-20T04:34:32.568Z,57265.83
2023-05-20T04:37:06.763Z,57290.18
2023-05-20T04:39:37.326Z,57274.30
2023-05-20T04:42:10.998Z,57274.30
2023-05-20T04:44:43.366Z,57303.95
2023-05-20T04:47:16.779Z,57305.01
2023-05-20T04:49:53.105Z,57277.48
2023-05-20T04:52:25.684Z,57277.48
2023-05-20T04:55:03.138Z,57287.01
2023-05-20T04:57:33.439Z,57313.48
2023-05-20T05:00:04.104Z,57313.48
2023-05-20T05:02:39.780Z,57314.55
2023-05-20T05:05:10.326Z,57320.90
2023-05-20T05:07:40.752Z,57308.19
2023-05-20T05:10:16.759Z,57321.96
2023-05-20T05:12:47.287Z,57307.13
2023-05-20T05:15:20.475Z,57332.55
2023-05-20T05:18:01.471Z,57345.26
2023-05-20T05:20:40.386Z,57345.26
2023-05-20T05:23:12.108Z,57325.14
2023-05-20T05:25:45.989Z,57382.32
2023-05-20T05:28:21.540Z,57352.67
2023-05-20T05:31:12.563Z,57352.67
2023-05-20T05:33:46.271Z,57365.38
2023-05-20T05:36:18.992Z,57367.50
2023-05-20T05:38:52.211Z,57342.08
2023-05-20T05:41:25.041Z,57342.08
2023-05-20T05:43:56.019Z,57364.32
2023-05-20T05:46:31.026Z,57364.32
2023-05-20T05:49:04.263Z,57411.98
2023-05-20T05:51:35.958Z,57411.98
2023-05-20T05:54:09.355Z,57390.80
2023-05-20T05:56:40.108Z,57433.16
2023-05-20T05:59:10.542Z,57420.45
2023-05-20T06:01:43.295Z,57445.87
2023-05-20T06:04:13.219Z,57473.41
2023-05-20T06:06:43.690Z,57473.41
2023-05-20T06:09:14.012Z,57464.93
2023-05-20T06:11:44.420Z,57464.93
2023-05-20T06:14:15.515Z,57489.29
2023-05-20T06:16:50.730Z,57474.46
2023-05-20T06:19:21.677Z,57490.35
2023-05-20T06:21:52.201Z,57490.35
2023-05-20T06:24:24.352Z,57547.54
2023-05-20T06:26:54.765Z,57547.54
2023-05-20T06:29:25.339Z,57518.95
2023-05-20T06:31:55.710Z,57590.97
2023-05-20T06:34:26.456Z,57590.97
2023-05-20T06:36:58.024Z,57620.62
2023-05-20T06:39:32.546Z,57641.81
2023-05-20T06:42:02.930Z,57610.03
2023-05-20T06:44:36.212Z,57610.03
2023-05-20T06:47:09.305Z,57657.70
2023-05-20T06:49:40.452Z,57729.72
2023-05-20T06:52:11.019Z,57729.72
2023-05-20T06:54:44.502Z,57769.97
2023-05-20T06:57:15.071Z,57769.97
2023-05-20T06:59:45.412Z,57821.87
2023-05-20T07:02:15.781Z,57821.87
2023-05-20T07:04:46.149Z,57762.55
2023-05-20T07:07:17.439Z,57807.04
2023-05-20T07:09:50.379Z,57899.19
2023-05-20T07:12:20.693Z,57899.19
2023-05-20T07:14:51.230Z,57952.16
2023-05-20T07:17:21.748Z,57952.16
2023-05-20T07:19:52.480Z,57911.90
2023-05-20T07:22:23.168Z,57911.90
2023-05-20T07:24:54.297Z,57929.91
2023-05-20T07:27:27.995Z,57996.64
2023-05-20T07:29:58.596Z,57996.64
2023-05-20T07:32:29.044Z,58017.83
2023-05-20T07:34:59.298Z,58037.95
2023-05-20T07:37:29.776Z,58037.95
2023-05-20T07:40:04.558Z,58001.94
2023-05-20T07:42:40.648Z,58041.13
2023-05-20T07:45:13.270Z,58093.04
2023-05-20T07:47:46.411Z,58085.62
2023-05-20T07:50:16.949Z,58042.19
2023-05-20T07:55:21.125Z,58091.98
2023-05-20T07:57:55.206Z,58091.98
2023-05-20T08:00:25.940Z,58090.92
2023-05-20T08:02:58.112Z,58090.92
2023-05-20T08:05:31.836Z,58116.34
2023-05-20T08:08:04.187Z,58132.23
2023-05-20T08:10:48.741Z,58146.00
2023-05-20T08:13:23.152Z,58115.29
2023-05-20T08:16:12.734Z,58188.37
2023-05-20T08:18:44.011Z,58128.00
2023-05-20T08:21:14.700Z,58185.20
2023-05-20T08:23:47.625Z,58182.02
2023-05-20T08:26:19.271Z,58189.43
2023-05-20T08:28:52.944Z,58231.81
2023-05-20T08:31:26.695Z,58261.47
2023-05-20T08:33:57.278Z,58172.48
2023-05-20T08:36:30.168Z,58133.29
2023-05-20T08:39:02.008Z,58001.94
2023-05-20T08:41:33.169Z,58036.89
2023-05-20T08:44:07.984Z,58036.89
2023-05-20T08:46:39.564Z,58109.99
2023-05-20T08:49:14.256Z,58180.96
2023-05-20T08:52:06.503Z,58180.96
2023-05-20T08:54:43.126Z,58231.81
2023-05-20T08:57:15.108Z,58231.81
2023-05-20T08:59:48.621Z,58050.67
2023-05-20T09:02:25.189Z,58050.67
2023-05-20T09:05:00.069Z,58005.12
2023-05-20T09:07:56.077Z,57977.57
2023-05-20T09:10:32.783Z,57977.57
2023-05-20T09:13:10.885Z,57942.62
2023-05-20T09:15:41.371Z,58040.07
2023-05-20T09:18:19.246Z,58168.25
2023-05-20T09:21:15.840Z,58168.25
2023-05-20T09:23:34.299Z,58371.64
2023-05-20T09:26:12.334Z,58321.85
2023-05-20T09:28:42.678Z,58333.51
2023-05-20T09:31:17.294Z,58333.51
2023-05-20T09:34:08.421Z,58383.30
2023-05-20T09:36:41.364Z,58415.08
2023-05-20T09:39:20.266Z,58415.08
2023-05-20T09:41:58.392Z,58335.62
2023-05-20T09:44:29.179Z,58250.88
2023-05-20T09:47:01.490Z,58250.88
2023-05-20T09:49:35.038Z,58093.04
2023-05-20T09:52:06.141Z,58093.04
2023-05-20T09:54:37.555Z,57998.76
2023-05-20T09:57:09.450Z,58094.10
2023-05-20T09:59:49.030Z,58094.10
2023-05-20T10:02:21.020Z,58154.48
2023-05-20T10:04:54.122Z,58211.68
2023-05-20T10:07:42.154Z,58211.68
2023-05-20T10:10:48.625Z,58188.37
2023-05-20T10:13:37.278Z,58090.92
2023-05-20T10:16:11.779Z,57964.86
2023-05-20T10:19:10.619Z,57964.86
2023-05-20T10:21:41.311Z,57886.48
2023-05-20T10:24:18.664Z,57954.27
2023-05-20T10:26:58.316Z,58077.15
2023-05-20T10:29:29.810Z,58215.92
2023-05-20T10:32:00.296Z,58215.92
2023-05-20T10:34:33.748Z,58195.79
2023-05-20T10:37:04.334Z,58166.13
2023-05-20T10:39:35.516Z,58239.22
2023-05-20T10:42:11.099Z,58253.00
2023-05-20T10:44:43.307Z,58253.00
2023-05-20T10:49:48.365Z,57972.28
2023-05-20T10:52:24.532Z,57989.23
2023-05-20T10:55:05.064Z,57994.52
2023-05-20T10:57:39.895Z,58028.42
2023-05-20T11:00:10.758Z,58028.42
2023-05-20T11:03:04.222Z,58055.96
2023-05-20T11:05:42.509Z,58124.82
2023-05-20T11:08:27.294Z,58219.10
2023-05-20T11:10:48.101Z,58348.34
2023-05-20T11:13:19.135Z,58404.48
2023-05-20T11:18:50.112Z,58424.61
2023-05-20T11:21:20.449Z,58464.87
2023-05-20T11:23:52.267Z,58421.43
2023-05-20T11:26:22.685Z,58408.72
2023-05-20T11:28:58.645Z,58477.58
2023-05-20T11:31:30.611Z,58477.58
2023-05-20T11:34:03.634Z,58331.39
2023-05-20T11:36:36.232Z,58218.04
2023-05-20T11:39:06.587Z,58311.26
2023-05-20T11:41:37.958Z,58311.26
2023-05-20T11:46:57.157Z,58508.30
2023-05-20T11:49:30.076Z,58389.65
2023-05-20T11:52:00.528Z,58337.74
2023-05-20T11:54:36.060Z,58372.70
2023-05-20T11:57:07.868Z,58372.70
2023-05-20T11:59:38.458Z,58394.95
2023-05-20T12:02:08.789Z,58448.98
2023-05-20T12:04:39.320Z,58448.98
2023-05-20T12:07:09.722Z,58503.01
2023-05-20T12:09:40.508Z,58384.36
2023-05-20T12:12:11.014Z,58391.77
2023-05-20T12:14:41.234Z,58378.00
2023-05-20T12:17:13.106Z,58378.00
2023-05-20T12:19:43.893Z,58357.87
2023-05-20T12:22:14.465Z,58435.21
2023-05-20T12:24:45.074Z,58435.21
2023-05-20T12:27:15.482Z,58448.98
2023-05-20T12:29:45.975Z,58448.98
2023-05-20T12:32:16.435Z,58560.22
2023-05-20T12:34:47.510Z,58560.22
2023-05-20T12:37:19.920Z,58572.93
2023-05-20T12:39:50.837Z,58503.01
2023-05-20T12:42:21.345Z,58587.77
2023-05-20T12:44:51.841Z,58551.74
2023-05-20T12:47:25.350Z,58647.09
2023-05-20T12:49:59.200Z,58647.09
2023-05-20T12:52:54.385Z,58616.37
2023-05-20T12:58:08.843Z,58491.36
2023-05-20T13:07:12.803Z,58424.61
2023-05-20T13:10:21.922Z,58424.61
2023-05-20T13:13:10.178Z,58426.73
2023-05-20T13:18:24.265Z,55847.02
2023-05-20T13:20:55.563Z,58542.21
2023-05-20T13:23:26.151Z,58391.77
2023-05-20T13:25:59.126Z,58391.77
2023-05-20T13:28:32.842Z,58329.27
2023-05-20T13:31:05.928Z,58390.71
2023-05-20T13:33:38.279Z,58268.89
2023-05-20T13:36:12.913Z,58268.89
2023-05-20T13:38:55.034Z,58314.44
2023-05-20T13:41:29.421Z,58314.44
2023-05-20T13:44:03.501Z,58185.20
2023-05-20T13:47:07.151Z,58185.20
2023-05-20T13:49:38.374Z,58256.17
2023-05-20T14:35:43.708Z,57868.47
2023-05-20T14:38:16.172Z,57892.84
2023-05-20T14:40:46.919Z,57839.87
2023-05-20T14:43:18.969Z,57856.82
2023-05-20T14:46:04.045Z,57827.16
2023-05-20T14:48:35.020Z,57822.93
2023-05-20T14:51:10.868Z,57822.93
2023-05-20T14:53:46.831Z,57799.62
2023-05-20T14:56:17.343Z,57797.51
2023-05-20T14:58:53.694Z,57797.51
2023-05-20T15:01:36.066Z,57750.90
2023-05-20T15:04:13.024Z,57762.55
2023-05-20T15:06:43.742Z,57780.56
2023-05-20T15:09:14.180Z,57780.56
2023-05-20T15:11:45.127Z,57756.20
2023-05-20T15:14:17.116Z,57756.20
2023-05-20T15:16:59.046Z,57751.96
2023-05-20T15:19:37.840Z,57751.96
2023-05-20T15:22:14.872Z,57787.97
2023-05-20T15:24:53.052Z,57787.97
2023-05-20T15:27:29.398Z,57753.02
2023-05-20T15:30:06.646Z,57748.79
2023-05-20T15:35:38.155Z,57753.02
2023-05-20T15:38:27.687Z,57745.61
2023-05-20T17:40:44.981Z,57432.10
2023-05-20T17:43:15.523Z,57421.51
2023-05-20T17:45:46.068Z,57432.10
2023-05-20T17:48:16.798Z,57397.15
2023-05-20T17:50:48.365Z,57396.09
2023-05-20T17:53:21.091Z,57400.33
2023-05-20T17:55:51.268Z,57407.74
2023-05-20T17:58:25.900Z,57378.09
2023-05-20T18:00:57.878Z,57378.09
2023-05-20T18:03:28.595Z,57382.32
2023-05-20T18:05:59.225Z,57382.32
2023-05-20T18:08:36.017Z,57363.26
2023-05-20T18:11:06.703Z,57375.97
2023-05-20T18:13:40.408Z,57386.56
2023-05-20T18:16:11.209Z,57386.56
2023-05-20T18:18:42.281Z,57380.21
2023-05-20T18:21:12.886Z,57380.21
2023-05-20T18:23:43.394Z,57390.80
2023-05-20T18:26:14.352Z,57375.97
2023-05-20T18:28:44.897Z,57373.85
2023-05-20T18:31:15.403Z,57344.20
2023-05-20T18:33:46.146Z,57367.50
2023-05-20T18:36:19.900Z,57360.08
2023-05-20T18:38:51.289Z,57360.08
2023-05-20T18:41:23.607Z,57356.91
2023-05-20T18:43:55.893Z,57356.91
2023-05-20T18:46:37.146Z,57346.32
2023-05-20T18:58:44.099Z,57357.96
2023-05-20T19:01:33.408Z,57354.79
2023-05-20T19:04:12.154Z,57345.26
2023-05-20T19:06:45.803Z,57345.26
2023-05-20T19:09:24.728Z,57355.85
2023-05-20T19:11:55.542Z,57353.73
2023-05-20T19:14:28.753Z,57346.32
2023-05-20T19:17:05.367Z,57368.55
2023-05-20T19:19:37.345Z,57336.79
2023-05-20T19:22:13.308Z,57359.03
2023-05-20T19:24:46.456Z,57345.26
2023-05-20T19:27:16.875Z,57345.26
2023-05-20T19:29:50.143Z,57355.85
2023-05-20T19:32:23.635Z,57359.03
2023-05-20T19:34:55.166Z,57323.02
2023-05-20T19:37:37.096Z,57348.43
2023-05-20T19:40:07.961Z,57333.61
2023-05-20T19:42:40.429Z,57335.73
2023-05-20T19:45:34.435Z,57332.55
2023-05-20T19:48:13.745Z,57332.55
2023-05-20T19:51:02.030Z,57312.43
2023-05-20T19:53:34.023Z,57335.73
2023-05-20T19:56:19.160Z,57364.32
2023-05-20T19:58:59.906Z,57316.66
2023-05-20T20:01:32.432Z,57346.32
2023-05-20T20:04:03.114Z,57346.32
2023-05-20T20:06:36.321Z,57337.84
2023-05-20T20:09:07.495Z,57337.84
2023-05-20T20:11:38.081Z,57331.49
2023-05-20T20:14:08.521Z,57335.73
2023-05-20T20:16:41.785Z,57335.73
2023-05-20T20:19:12.484Z,57309.25
2023-05-20T20:21:43.228Z,57332.55
2023-05-20T20:24:17.899Z,57332.55
2023-05-20T20:26:50.277Z,57302.89
2023-05-20T20:29:21.887Z,57306.07
2023-05-20T20:31:52.584Z,57289.13
2023-05-20T20:34:30.134Z,57314.55
2023-05-20T20:37:03.922Z,57308.19
2023-05-20T20:39:38.217Z,57308.19
2023-05-20T20:42:10.236Z,57331.49
2023-05-20T20:44:40.641Z,57329.37
2023-05-20T20:47:11.289Z,57311.37
2023-05-20T20:49:43.470Z,57312.43
2023-05-20T20:52:16.464Z,57325.14
2023-05-20T20:54:46.848Z,57293.36
2023-05-20T20:57:17.212Z,57293.36
2023-05-20T20:59:47.970Z,57294.42
2023-05-20T21:02:19.004Z,57303.95
2023-05-20T21:04:49.746Z,57298.66
2023-05-20T21:07:22.943Z,57325.14
2023-05-20T21:09:56.546Z,57308.19
2023-05-20T21:12:26.981Z,57309.25
2023-05-20T21:14:58.527Z,57305.01
2023-05-20T21:17:28.936Z,57305.01
2023-05-20T21:20:00.481Z,57298.66
2023-05-20T21:22:34.292Z,57282.77
2023-05-20T21:25:07.258Z,57314.55
2023-05-20T21:27:40.174Z,57300.78
2023-05-20T21:30:14.256Z,57316.66
2023-05-20T21:32:55.609Z,57301.84
2023-05-20T21:35:29.816Z,57301.84
2023-05-20T21:38:01.965Z,57260.54
2023-05-20T21:40:32.822Z,57260.54
2023-05-20T21:43:03.553Z,57287.01
2023-05-20T21:45:34.924Z,57287.01
2023-05-20T21:48:07.354Z,57292.30
2023-05-20T21:50:38.095Z,57270.06
2023-05-20T21:53:08.660Z,57261.59
2023-05-20T21:55:41.989Z,57306.07
2023-05-20T21:58:12.470Z,57295.48
2023-05-20T22:00:42.957Z,57295.48
2023-05-20T22:03:13.370Z,57281.71
2023-05-20T22:05:43.973Z,57284.89
2023-05-20T22:08:23.317Z,57284.89
2023-05-20T22:10:56.844Z,57270.06
2023-05-20T22:13:38.345Z,57275.36
2023-05-20T22:16:03.807Z,57275.36
2023-05-20T22:18:34.380Z,57272.18
2023-05-20T22:21:05.144Z,57273.24
2023-05-20T22:23:36.043Z,57262.65
2023-05-20T22:26:06.397Z,57262.65
2023-05-20T22:28:37.408Z,57251.00
2023-05-20T22:31:07.973Z,57243.59
2023-05-20T22:33:38.994Z,57270.06
2023-05-20T22:36:09.833Z,57270.06
2023-05-20T22:38:40.651Z,57259.47
2023-05-20T22:41:11.004Z,57259.47
2023-05-20T22:43:41.549Z,57272.18
2023-05-20T22:46:12.264Z,57263.71
2023-05-20T22:48:42.650Z,57265.83
2023-05-20T22:51:13.005Z,57245.71
2023-05-20T22:53:43.338Z,57278.54
2023-05-20T22:56:14.017Z,57277.48
2023-05-20T22:58:45.079Z,57276.42
2023-05-20T23:01:15.562Z,57276.42
2023-05-20T23:03:45.967Z,57251.00
2023-05-20T23:06:16.374Z,57261.59
2023-05-20T23:08:46.649Z,57261.59
2023-05-20T23:11:17.175Z,57270.06
2023-05-20T23:13:47.871Z,57270.06
2023-05-20T23:16:18.912Z,57270.06
2023-05-20T23:18:49.297Z,57270.06
2023-05-20T23:21:19.768Z,57249.95
2023-05-20T23:23:50.214Z,57267.95
2023-05-20T23:26:20.569Z,57267.95
2023-05-20T23:28:50.866Z,57280.66
2023-05-20T23:31:21.284Z,57280.66
2023-05-20T23:33:51.785Z,57244.65
2023-05-20T23:36:22.279Z,57263.71
2023-05-20T23:38:52.792Z,57270.06
2023-05-20T23:41:23.815Z,57270.06
2023-05-20T23:43:54.182Z,57243.59
2023-05-20T23:46:24.632Z,57251.00
2023-05-20T23:48:55.261Z,57280.66
2023-05-20T23:51:25.558Z,57231.94
2023-05-20T23:53:56.200Z,57231.94
2023-05-20T23:56:26.688Z,57241.47
2023-05-20T23:58:57.164Z,57241.47
